Terminal Aerodrome Forecast
Issued by NWS Buffalo, NY

Home | Current Version | Previous Version | Text Only | Print | Product List | Glossary On
Versions: 1 2 3 4 5 6 7 8 9 10 11 12 13 14 15 16 17 18 19 20 21 22 23 24 25 26 27
000
FTUS41 KBUF 211100
TAFBUF
TAF
KBUF 211123Z 2112/2212 21009KT 6SM -SHRA VCTS OVC035CB
      TEMPO 2112/2116 4SM SHRA BKN025
     FM211700 25012G18KT P6SM VCSH BKN035
     FM212300 30008KT P6SM VCSH BKN035
     FM220200 32008KT P6SM VCSH BKN025
     FM220400 32008KT P6SM VCSH OVC012
     FM221000 32010KT P6SM BKN020=

USA.gov is the U.S. government's official web portal to all federal, state and local government web resources and services.